Time;durP1;ratioP1;P1;durP2;ratioP2;P2;SDS_P1;SDS_P2;PMS_P1;PMS_P2;Temp;Humidity;BMP_temperature;BMP_pressure;BME280_temperature;BME280_humidity;BME280_pressure;Samples;Min_cycle;Max_cycle;Signal;HPM_P1;HPM_P2
2023/09/13 00:02:43;;;;;;;;;;;;;;;23.99;36.81;95327.78;6335082;27;110007;-64
2023/09/13 00:05:46;;;;;;;;;;;;;;;24.00;36.76;95321.34;6311432;27;109047;-64
2023/09/13 00:08:49;;;;;;;;;;;;;;;23.97;36.88;95325.41;6322788;27;109170;-64
2023/09/13 00:11:52;;;;;;;;;;;;;;;23.98;36.85;95310.94;6339921;27;109208;-64
2023/09/13 00:14:56;;;;;;;;;;;;;;;23.99;36.51;95315.19;6323311;27;109174;-64
2023/09/13 00:18:01;;;;;;;;;;;;;;;23.95;37.01;95308.91;6332979;27;109019;-66
2023/09/13 00:21:04;;;;;;;;;;;;;;;23.96;36.91;95315.03;6329640;27;109012;-64
2023/09/13 00:24:08;;;;;;;;;;;;;;;23.94;37.29;95309.22;6314029;27;109287;-64
2023/09/13 00:27:11;;;;;;;;;;;;;;;23.96;37.20;95317.72;6327660;27;109059;-65
2023/09/13 00:30:15;;;;;;;;;;;;;;;23.98;36.91;95320.84;6319357;27;110168;-65
2023/09/13 00:33:18;;;;;;;;;;;;;;;24.00;37.26;95321.34;6322747;27;109047;-65
2023/09/13 00:36:21;;;;;;;;;;;;;;;23.97;37.09;95322.75;6334162;27;109059;-61
2023/09/13 00:39:24;;;;;;;;;;;;;;;23.94;37.07;95319.91;6324065;27;109245;-62
2023/09/13 00:42:29;;;;;;;;;;;;;;;23.94;37.08;95318.03;6340373;27;109129;-61
2023/09/13 00:45:33;;;;;;;;;;;;;;;23.89;37.31;95323.53;6327591;27;109043;-60
2023/09/13 00:48:36;;;;;;;;;;;;;;;23.86;37.20;95319.59;6340421;27;109334;-60
2023/09/13 00:51:40;;;;;;;;;;;;;;;23.86;37.09;95318.81;6321566;27;109056;-61
2023/09/13 00:54:43;;;;;;;;;;;;;;;23.86;37.54;95329.50;6323508;27;109060;-61
2023/09/13 00:57:47;;;;;;;;;;;;;;;23.81;37.47;95322.38;6330857;27;109225;-60
2023/09/13 01:00:53;;;;;;;;;;;;;;;23.81;37.80;95327.72;6317603;27;111671;-60
2023/09/13 01:03:57;;;;;;;;;;;;;;;23.82;37.86;95326.63;6330439;27;109145;-60
2023/09/13 01:07:00;;;;;;;;;;;;;;;23.80;37.67;95331.50;6338473;27;109028;-60
2023/09/13 01:10:03;;;;;;;;;;;;;;;23.80;37.40;95326.16;6339232;27;109003;-60
2023/09/13 01:13:07;;;;;;;;;;;;;;;23.76;37.61;95335.09;6324969;27;110339;-60
2023/09/13 01:16:15;;;;;;;;;;;;;;;23.75;37.98;95331.66;6321967;27;109014;-62
2023/09/13 01:19:27;;;;;;;;;;;;;;;23.74;37.51;95327.41;6319663;27;109959;-60
2023/09/13 01:22:45;;;;;;;;;;;;;;;23.74;37.70;95324.72;6338495;27;109212;-61
2023/09/13 01:25:54;;;;;;;;;;;;;;;23.75;37.32;95322.84;6300828;27;109107;-60
2023/09/13 01:29:00;;;;;;;;;;;;;;;23.76;37.58;95330.53;6325821;27;110268;-60
2023/09/13 01:32:04;;;;;;;;;;;;;;;23.77;37.55;95326.00;6319592;27;110482;-61
2023/09/13 01:35:07;;;;;;;;;;;;;;;23.74;37.21;95322.06;6307080;27;109003;-65
2023/09/13 01:38:10;;;;;;;;;;;;;;;23.75;37.59;95331.66;6312979;27;109201;-60
2023/09/13 01:41:15;;;;;;;;;;;;;;;23.74;37.65;95326.59;6330234;27;110160;-60
2023/09/13 01:44:20;;;;;;;;;;;;;;;23.70;37.15;95331.78;6325935;27;109047;-61
2023/09/13 01:47:24;;;;;;;;;;;;;;;23.67;37.41;95327.03;6325988;27;109061;-63
2023/09/13 01:50:27;;;;;;;;;;;;;;;23.67;37.15;95336.94;6329904;27;109199;-63
2023/09/13 01:53:30;;;;;;;;;;;;;;;23.70;37.22;95337.13;6330418;27;109213;-64
2023/09/13 01:56:33;;;;;;;;;;;;;;;23.70;37.19;95339.03;6327138;27;109260;-63
2023/09/13 01:59:37;;;;;;;;;;;;;;;23.70;37.54;95337.13;6302374;27;109051;-64
2023/09/13 02:02:40;;;;;;;;;;;;;;;23.67;37.35;95332.38;6321325;27;109148;-64
2023/09/13 02:05:43;;;;;;;;;;;;;;;23.68;37.36;95328.63;6325843;27;109412;-64
2023/09/13 02:08:49;;;;;;;;;;;;;;;23.69;37.11;95330.22;6333799;27;109115;-63
2023/09/13 02:11:52;;;;;;;;;;;;;;;23.68;37.27;95328.63;6330996;27;109273;-63
2023/09/13 02:14:56;;;;;;;;;;;;;;;23.63;37.47;95328.75;6316135;27;109184;-63
2023/09/13 02:17:59;;;;;;;;;;;;;;;23.58;37.20;95328.91;6323832;27;110324;-63
2023/09/13 02:21:02;;;;;;;;;;;;;;;23.59;37.66;95330.47;6312994;27;109146;-64
2023/09/13 02:24:05;;;;;;;;;;;;;;;23.60;37.54;95332.84;6321853;27;108896;-64
2023/09/13 02:27:08;;;;;;;;;;;;;;;23.57;37.69;95332.66;6313297;27;109116;-64
2023/09/13 02:30:12;;;;;;;;;;;;;;;23.54;37.88;95333.28;6314030;27;109036;-63
2023/09/13 02:33:15;;;;;;;;;;;;;;;23.52;37.70;95317.56;6308637;27;110252;-64
2023/09/13 02:36:18;;;;;;;;;;;;;;;23.51;37.90;95331.22;6332331;27;109058;-64
2023/09/13 02:39:33;;;;;;;;;;;;;;;23.46;37.75;95321.47;6333353;27;109075;-63
2023/09/13 02:42:37;;;;;;;;;;;;;;;23.46;38.18;95332.13;6334732;27;109058;-64
2023/09/13 02:45:41;;;;;;;;;;;;;;;23.48;38.08;95334.50;6309876;27;109293;-63
2023/09/13 02:48:45;;;;;;;;;;;;;;;23.46;38.08;95332.13;6337363;27;109002;-63
2023/09/13 02:51:49;;;;;;;;;;;;;;;23.45;38.15;95337.78;6329157;27;109236;-63
2023/09/13 02:54:52;;;;;;;;;;;;;;;23.40;38.03;95335.25;6302172;27;109276;-61
2023/09/13 02:57:55;;;;;;;;;;;;;;;23.37;38.24;95341.22;6335498;27;109255;-66
2023/09/13 03:01:03;;;;;;;;;;;;;;;23.41;37.91;95348.31;6325884;27;110210;-65
2023/09/13 03:04:06;;;;;;;;;;;;;;;23.41;38.11;95355.53;6314774;27;108982;-65
2023/09/13 03:07:09;;;;;;;;;;;;;;;23.39;38.04;95355.06;6318248;27;109085;-65
2023/09/13 03:10:12;;;;;;;;;;;;;;;23.41;38.50;95356.31;6317226;27;109215;-65
2023/09/13 03:13:15;;;;;;;;;;;;;;;23.41;38.21;95360.88;6331769;27;109950;-64
2023/09/13 03:16:20;;;;;;;;;;;;;;;23.46;38.69;95363.41;6321181;27;110134;-67
2023/09/13 03:19:23;;;;;;;;;;;;;;;23.41;38.95;95355.53;6308926;27;109178;-64
2023/09/13 03:22:26;;;;;;;;;;;;;;;23.40;38.48;95359.28;6313350;27;109669;-64
2023/09/13 03:25:33;;;;;;;;;;;;;;;23.37;38.60;95360.72;6313529;27;110277;-64
2023/09/13 03:28:36;;;;;;;;;;;;;;;23.45;38.63;95357.28;6329883;27;109117;-67
2023/09/13 03:31:40;;;;;;;;;;;;;;;23.49;38.24;95365.47;6329415;27;109199;-67
2023/09/13 03:34:43;;;;;;;;;;;;;;;23.01;39.01;95368.75;6313263;27;109153;-67
2023/09/13 03:37:46;;;;;;;;;;;;;;;22.69;39.36;95370.56;6327571;27;110013;-67
2023/09/13 03:40:49;;;;;;;;;;;;;;;22.93;39.20;95380.16;6325878;27;109049;-66
2023/09/13 03:43:52;;;;;;;;;;;;;;;23.16;38.75;95371.03;6326303;27;109253;-68
2023/09/13 03:46:56;;;;;;;;;;;;;;;23.10;39.41;95366.16;6324468;27;111775;-67
2023/09/13 03:50:00;;;;;;;;;;;;;;;23.19;38.98;95364.34;6319822;27;109176;-66
2023/09/13 03:53:02;;;;;;;;;;;;;;;23.12;39.01;95364.75;6318534;27;109189;-67
2023/09/13 03:56:06;;;;;;;;;;;;;;;23.19;38.65;95365.13;6315884;27;109076;-66
2023/09/13 03:59:09;;;;;;;;;;;;;;;23.17;38.88;95369.16;6331518;27;111041;-67
2023/09/13 04:02:13;;;;;;;;;;;;;;;23.25;38.85;95376.47;6322973;27;109108;-67
2023/09/13 04:05:16;;;;;;;;;;;;;;;23.28;38.30;95357.94;6325475;27;110559;-65
2023/09/13 04:08:20;;;;;;;;;;;;;;;23.32;39.58;95363.47;6313347;27;109065;-67
2023/09/13 04:11:23;;;;;;;;;;;;;;;23.38;40.21;95361.50;6331457;27;109246;-68
2023/09/13 04:14:25;;;;;;;;;;;;;;;23.40;40.41;95368.09;6314917;27;109188;-68
2023/09/13 04:17:30;;;;;;;;;;;;;;;23.50;39.25;95364.38;6334500;27;109432;-67
2023/09/13 04:20:33;;;;;;;;;;;;;;;23.57;39.88;95370.06;6324313;27;110185;-67
2023/09/13 04:23:38;;;;;;;;;;;;;;;23.48;39.15;95363.88;6326971;27;109133;-67
2023/09/13 04:26:41;;;;;;;;;;;;;;;23.39;39.31;95365.75;6299613;27;109045;-67
2023/09/13 04:29:44;;;;;;;;;;;;;;;23.20;39.35;95365.91;6321960;27;109491;-68
2023/09/13 04:32:48;;;;;;;;;;;;;;;23.10;39.29;95366.16;6333360;27;109970;-67
2023/09/13 04:35:51;;;;;;;;;;;;;;;23.11;39.30;95376.53;6332075;27;110748;-68
2023/09/13 04:38:55;;;;;;;;;;;;;;;23.09;39.63;95370.69;6324498;27;109125;-68
2023/09/13 04:41:59;;;;;;;;;;;;;;;23.01;39.45;95371.41;6336009;27;109181;-68
2023/09/13 04:45:01;;;;;;;;;;;;;;;22.94;39.23;95369.19;6335704;27;109237;-68
2023/09/13 04:48:06;;;;;;;;;;;;;;;22.96;39.75;95374.22;6331626;27;109020;-66
2023/09/13 04:51:10;;;;;;;;;;;;;;;22.94;39.72;95377.19;6335409;27;110156;-67
2023/09/13 04:54:13;;;;;;;;;;;;;;;22.98;39.60;95378.16;6340281;27;109052;-67
2023/09/13 04:57:16;;;;;;;;;;;;;;;22.98;39.48;95380.03;6340343;27;109736;-67
2023/09/13 05:00:19;;;;;;;;;;;;;;;22.78;39.92;95375.94;6328364;27;110123;-67
2023/09/13 05:03:23;;;;;;;;;;;;;;;22.60;40.61;95380.34;6333145;27;112290;-68
2023/09/13 05:06:26;;;;;;;;;;;;;;;22.55;40.58;95377.78;6339251;27;111351;-67
2023/09/13 05:09:29;;;;;;;;;;;;;;;22.40;40.39;95378.09;6339957;27;109063;-67
2023/09/13 05:12:32;;;;;;;;;;;;;;;22.32;40.70;95378.78;6329587;27;110144;-68
2023/09/13 05:15:42;;;;;;;;;;;;;;;22.32;40.82;95381.47;6339651;27;109082;-65
2023/09/13 05:18:46;;;;;;;;;;;;;;;22.28;41.01;95380.47;6340040;27;110120;-63
2023/09/13 05:21:49;;;;;;;;;;;;;;;22.20;41.15;95375.88;6337558;27;109081;-64
2023/09/13 05:24:52;;;;;;;;;;;;;;;22.38;40.72;95370.41;6332126;27;109051;-63
2023/09/13 05:27:54;;;;;;;;;;;;;;;22.47;40.62;95375.00;6339563;27;109206;-63
2023/09/13 05:30:58;;;;;;;;;;;;;;;22.64;39.91;95375.19;6338068;27;109339;-63
2023/09/13 05:34:02;;;;;;;;;;;;;;;22.66;39.94;95383.69;6318921;27;110883;-63
2023/09/13 05:37:05;;;;;;;;;;;;;;;22.71;40.01;95383.59;6312966;27;109369;-63
2023/09/13 05:40:08;;;;;;;;;;;;;;;22.86;40.26;95387.81;6325358;27;109822;-63
2023/09/13 05:43:11;;;;;;;;;;;;;;;22.79;40.24;95384.75;6339487;27;109010;-63
2023/09/13 05:46:16;;;;;;;;;;;;;;;22.85;40.10;95376.34;6329545;27;112941;-63
2023/09/13 05:49:20;;;;;;;;;;;;;;;22.92;40.08;95379.38;6339141;27;109350;-63
2023/09/13 05:52:23;;;;;;;;;;;;;;;22.99;40.16;95370.94;6339304;27;109191;-63
2023/09/13 05:55:26;;;;;;;;;;;;;;;23.00;40.60;95375.16;6338904;27;108980;-64
2023/09/13 05:58:29;;;;;;;;;;;;;;;22.97;40.85;95375.78;6329942;27;110361;-63
2023/09/13 06:01:32;;;;;;;;;;;;;;;22.98;40.89;95374.69;6338281;27;109320;-63
2023/09/13 06:04:37;;;;;;;;;;;;;;;23.05;40.54;95371.63;6339049;27;108965;-63
2023/09/13 06:07:40;;;;;;;;;;;;;;;23.25;39.95;95379.13;6333597;27;109025;-62
2023/09/13 06:10:43;;;;;;;;;;;;;;;23.32;40.09;95370.69;6333961;27;109663;-63
2023/09/13 06:13:46;;;;;;;;;;;;;;;23.46;40.11;95374.09;6338525;27;109236;-63
2023/09/13 06:16:49;;;;;;;;;;;;;;;23.59;39.31;95376.69;6338350;27;108943;-65
2023/09/13 06:19:53;;;;;;;;;;;;;;;23.68;39.57;95376.72;6328542;27;109124;-64
2023/09/13 06:22:56;;;;;;;;;;;;;;;23.77;39.04;95374.88;6338735;27;109528;-64
2023/09/13 06:25:59;;;;;;;;;;;;;;;23.84;38.72;95382.44;6338218;27;109193;-65
2023/09/13 06:29:05;;;;;;;;;;;;;;;23.86;38.99;95378.38;6317962;27;109150;-65
2023/09/13 06:32:10;;;;;;;;;;;;;;;23.93;38.57;95369.13;6337677;27;109106;-64
2023/09/13 06:35:35;;;;;;;;;;;;;;;23.78;40.08;95373.00;6338377;27;108667;-64
2023/09/13 06:38:38;;;;;;;;;;;;;;;23.87;39.48;95374.63;6338615;27;109049;-65
2023/09/13 06:41:42;;;;;;;;;;;;;;;23.98;39.51;95383.13;6312648;27;109224;-65
2023/09/13 06:44:45;;;;;;;;;;;;;;;24.09;39.17;95378.31;6321275;27;108928;-64
2023/09/13 06:47:50;;;;;;;;;;;;;;;24.13;39.01;95389.97;6334314;27;109475;-65
2023/09/13 06:50:56;;;;;;;;;;;;;;;24.17;38.94;95382.91;6331579;27;109175;-64
2023/09/13 06:54:02;;;;;;;;;;;;;;;24.28;39.69;95384.19;6334497;27;108951;-68
2023/09/13 06:57:08;;;;;;;;;;;;;;;24.30;38.68;95376.66;6330980;27;109982;-64
2023/09/13 07:00:17;;;;;;;;;;;;;;;24.36;38.31;95380.78;6315721;27;110237;-65
2023/09/13 07:03:33;;;;;;;;;;;;;;;24.37;38.56;95385.03;6337004;27;109062;-66
2023/09/13 07:06:42;;;;;;;;;;;;;;;24.43;38.90;95386.44;6337658;27;108835;-65
2023/09/13 07:09:45;;;;;;;;;;;;;;;24.47;38.32;95386.59;6337325;27;109732;-65
2023/09/13 07:12:48;;;;;;;;;;;;;;;24.44;38.68;95382.66;6326718;27;108845;-64
2023/09/13 07:15:51;;;;;;;;;;;;;;;24.47;38.64;95387.38;6337465;27;109182;-65
2023/09/13 07:18:55;;;;;;;;;;;;;;;24.52;38.71;95377.63;6337433;27;109419;-65
2023/09/13 07:22:00;;;;;;;;;;;;;;;24.50;38.59;95377.94;6308052;27;109104;-67
2023/09/13 07:25:04;;;;;;;;;;;;;;;24.59;38.49;95381.44;6315274;27;109039;-65
2023/09/13 07:28:07;;;;;;;;;;;;;;;24.60;38.34;95382.22;6323075;27;109219;-65
2023/09/13 07:31:10;;;;;;;;;;;;;;;24.57;38.43;95380.16;6330791;27;111430;-65
2023/09/13 07:34:15;;;;;;;;;;;;;;;24.57;38.24;95377.50;6324604;27;109190;-65
2023/09/13 07:37:34;;;;;;;;;;;;;;;24.53;38.50;95379.19;6311508;27;108985;-67
2023/09/13 07:40:38;;;;;;;;;;;;;;;24.61;38.50;95381.09;6324955;27;110262;-68
2023/09/13 07:43:41;;;;;;;;;;;;;;;24.61;38.39;95373.88;6337041;27;109020;-66
2023/09/13 07:46:43;;;;;;;;;;;;;;;24.47;37.98;95371.31;6327059;27;110595;-66
2023/09/13 07:49:47;;;;;;;;;;;;;;;24.45;38.13;95372.75;6336659;27;109045;-67
2023/09/13 07:52:51;;;;;;;;;;;;;;;24.38;37.80;95373.22;6337022;27;109502;-67
2023/09/13 07:56:07;;;;;;;;;;;;;;;24.41;37.74;95372.59;6332307;27;109051;-66
2023/09/13 07:59:13;;;;;;;;;;;;;;;24.54;37.55;95370.88;6309402;27;110212;-66
2023/09/13 08:02:16;;;;;;;;;;;;;;;24.63;37.70;95370.88;6337267;27;109100;-66
2023/09/13 08:05:19;;;;;;;;;;;;;;;24.69;37.85;95365.06;6335817;27;109811;-67
2023/09/13 08:08:23;;;;;;;;;;;;;;;24.74;37.61;95370.28;6327026;27;111202;-67
2023/09/13 08:11:26;;;;;;;;;;;;;;;24.77;37.61;95371.56;6335780;27;108870;-67
2023/09/13 08:14:29;;;;;;;;;;;;;;;24.82;37.43;95363.34;6336339;27;109193;-66
2023/09/13 08:17:33;;;;;;;;;;;;;;;24.77;37.78;95360.84;6337118;27;109529;-67
2023/09/13 08:20:36;;;;;;;;;;;;;;;24.87;37.40;95357.06;6326319;27;109227;-67
2023/09/13 08:23:40;;;;;;;;;;;;;;;24.92;37.35;95355.00;6340257;27;110045;-67
2023/09/13 08:26:43;;;;;;;;;;;;;;;24.97;37.22;95354.06;6340770;27;109494;-66
2023/09/13 08:29:46;;;;;;;;;;;;;;;25.04;37.29;95357.84;6341271;27;112595;-67
2023/09/13 08:32:49;;;;;;;;;;;;;;;25.03;37.30;95358.97;6330553;27;109505;-68
2023/09/13 08:35:52;;;;;;;;;;;;;;;25.05;37.29;95353.28;6340079;27;109043;-74
2023/09/13 08:38:56;;;;;;;;;;;;;;;25.02;37.54;95349.31;6340844;27;109238;-67
2023/09/13 08:41:59;;;;;;;;;;;;;;;25.03;37.13;95350.91;6335742;27;110053;-66
2023/09/13 08:45:02;;;;;;;;;;;;;;;25.04;37.67;95352.50;6335211;27;109068;-67
2023/09/13 08:48:07;;;;;;;;;;;;;;;25.09;37.15;95346.97;6340682;27;109189;-67
2023/09/13 08:51:10;;;;;;;;;;;;;;;25.19;37.19;95347.72;6340428;27;109292;-67
2023/09/13 08:54:16;;;;;;;;;;;;;;;25.18;37.15;95348.81;6331440;27;109551;-67
2023/09/13 08:57:20;;;;;;;;;;;;;;;25.17;37.10;95340.00;6340512;27;109008;-67
2023/09/13 09:00:24;;;;;;;;;;;;;;;25.20;37.08;95338.56;6340057;27;109162;-67
2023/09/13 09:03:28;;;;;;;;;;;;;;;25.25;37.19;95335.75;6340596;27;110025;-66
2023/09/13 09:06:31;;;;;;;;;;;;;;;25.32;36.95;95331.47;6329114;27;110398;-66
2023/09/13 09:09:36;;;;;;;;;;;;;;;25.32;36.84;95336.81;6340466;27;108781;-66
2023/09/13 09:12:40;;;;;;;;;;;;;;;25.28;36.98;95325.19;6339749;27;109034;-66
2023/09/13 09:15:43;;;;;;;;;;;;;;;25.27;36.96;95328.19;6335140;27;109223;-66
2023/09/13 09:18:46;;;;;;;;;;;;;;;25.27;37.04;95320.16;6335228;27;108950;-67
2023/09/13 09:21:50;;;;;;;;;;;;;;;25.28;36.81;95324.41;6340048;27;109091;-67
2023/09/13 09:24:54;;;;;;;;;;;;;;;25.34;36.92;95329.25;6339727;27;109269;-67
2023/09/13 09:27:57;;;;;;;;;;;;;;;25.34;36.80;95328.47;6328852;27;109285;-67
2023/09/13 09:31:00;;;;;;;;;;;;;;;25.32;36.60;95326.09;6339402;27;109189;-66
2023/09/13 09:34:04;;;;;;;;;;;;;;;25.37;36.93;95325.19;6338839;27;109145;-66
2023/09/13 09:37:07;;;;;;;;;;;;;;;25.39;36.90;95323.00;6338864;27;109333;-67
2023/09/13 09:40:14;;;;;;;;;;;;;;;25.36;36.59;95319.03;6328013;27;109043;-66
2023/09/13 09:43:17;;;;;;;;;;;;;;;25.39;36.80;95314.94;6339448;27;109172;-66
2023/09/13 09:46:20;;;;;;;;;;;;;;;25.45;36.70;95310.19;6339412;27;109050;-67
2023/09/13 09:49:23;;;;;;;;;;;;;;;25.55;36.64;95301.81;6339122;27;109147;-67
2023/09/13 09:52:26;;;;;;;;;;;;;;;25.50;36.87;95302.75;6328750;27;109002;-75
2023/09/13 09:55:31;;;;;;;;;;;;;;;25.44;36.69;95304.06;6339247;27;109189;-67
2023/09/13 09:58:34;;;;;;;;;;;;;;;25.46;36.64;95298.38;6339270;27;109419;-66
2023/09/13 10:01:38;;;;;;;;;;;;;;;25.59;36.39;95298.16;6333817;27;109024;-66
2023/09/13 10:04:51;;;;;;;;;;;;;;;25.79;35.79;95291.28;6333943;27;110058;-66
2023/09/13 10:07:55;;;;;;;;;;;;;;;25.90;35.92;95289.81;6337584;27;109029;-67
2023/09/13 10:10:59;;;;;;;;;;;;;;;25.90;35.74;95291.72;6338413;27;109310;-67
2023/09/13 10:14:02;;;;;;;;;;;;;;;25.95;35.34;95288.84;6327453;27;109155;-66
2023/09/13 10:17:06;;;;;;;;;;;;;;;25.88;35.80;95288.56;6339127;27;108844;-67
2023/09/13 10:20:11;;;;;;;;;;;;;;;25.62;36.50;95281.44;6338510;27;109137;-66
2023/09/13 10:23:15;;;;;;;;;;;;;;;25.47;36.63;95276.59;6312739;27;109205;-66
2023/09/13 10:26:20;;;;;;;;;;;;;;;25.41;36.48;95275.22;6311480;27;109195;-66
2023/09/13 10:29:26;;;;;;;;;;;;;;;25.45;36.54;95270.78;6338345;27;109171;-70
2023/09/13 10:32:33;;;;;;;;;;;;;;;25.49;36.66;95265.56;6338549;27;109241;-66
2023/09/13 10:35:41;;;;;;;;;;;;;;;25.75;36.40;95273.50;6333648;27;110034;-67
2023/09/13 10:38:46;;;;;;;;;;;;;;;25.81;36.36;95262.25;6331848;27;109519;-67
2023/09/13 10:42:00;;;;;;;;;;;;;;;25.78;36.48;95257.53;6338211;27;108996;-67
2023/09/13 10:45:03;;;;;;;;;;;;;;;25.91;35.94;95258.44;6338264;27;109580;-67
2023/09/13 10:48:06;;;;;;;;;;;;;;;25.87;35.87;95254.81;6327428;27;109075;-66
2023/09/13 10:51:10;;;;;;;;;;;;;;;25.77;36.34;95244.47;6337947;27;109217;-66
2023/09/13 10:54:13;;;;;;;;;;;;;;;25.60;36.81;95254.16;6338253;27;109688;-66
2023/09/13 10:57:18;;;;;;;;;;;;;;;25.40;36.93;95246.84;6337187;27;109142;-69
2023/09/13 11:00:22;;;;;;;;;;;;;;;25.29;36.57;95237.56;6328100;27;109794;-66
2023/09/13 11:03:25;;;;;;;;;;;;;;;25.30;37.15;95244.50;6337498;27;109205;-67
2023/09/13 11:06:28;;;;;;;;;;;;;;;25.36;36.85;95241.34;6338042;27;110106;-67
2023/09/13 11:09:31;;;;;;;;;;;;;;;25.40;36.76;95238.81;6332422;27;109204;-65
2023/09/13 11:12:36;;;;;;;;;;;;;;;25.42;36.94;95244.63;6331598;27;109540;-66
2023/09/13 11:16:03;;;;;;;;;;;;;;;25.40;36.68;95238.03;6337064;27;112419;-65
2023/09/13 11:19:10;;;;;;;;;;;;;;;25.32;37.17;95231.56;6337545;27;109056;-65
2023/09/13 11:22:33;;;;;;;;;;;;;;;25.27;37.17;95229.06;6326748;27;109246;-65
2023/09/13 11:25:37;;;;;;;;;;;;;;;25.19;37.50;95219.16;6337451;27;109196;-65
2023/09/13 11:29:20;;;;;;;;;;;;;;;25.22;36.52;95222.00;6327589;27;108868;-65
2023/09/13 11:32:25;;;;;;;;;;;;;;;25.28;36.38;95207.31;6333256;27;109444;-65
2023/09/13 11:35:28;;;;;;;;;;;;;;;25.41;36.47;95215.50;6332663;27;110171;-65
2023/09/13 11:38:31;;;;;;;;;;;;;;;25.41;36.23;95202.09;6313434;27;109487;-65
2023/09/13 11:41:38;;;;;;;;;;;;;;;25.39;36.35;95207.78;6317700;27;109217;-67
2023/09/13 11:44:58;;;;;;;;;;;;;;;25.49;36.17;95201.25;6328159;27;110780;-64
2023/09/13 11:48:07;;;;;;;;;;;;;;;25.50;35.99;95203.59;6336669;27;109207;-64
2023/09/13 11:51:12;;;;;;;;;;;;;;;25.49;36.17;95199.34;6336702;27;108991;-64
2023/09/13 11:54:25;;;;;;;;;;;;;;;25.45;36.51;95193.09;6337052;27;108910;-64
2023/09/13 11:57:42;;;;;;;;;;;;;;;25.40;36.52;95195.94;6325524;27;110324;-63
2023/09/13 12:01:03;;;;;;;;;;;;;;;25.46;36.27;95191.19;6317298;27;109087;-64
2023/09/13 12:04:08;;;;;;;;;;;;;;;25.46;36.59;95191.97;6342177;27;110196;-64
2023/09/13 12:07:14;;;;;;;;;;;;;;;25.43;36.22;95181.91;6329315;27;108950;-64
2023/09/13 12:10:29;;;;;;;;;;;;;;;25.36;36.41;95185.06;6341021;27;110099;-64
2023/09/13 12:13:41;;;;;;;;;;;;;;;25.36;36.53;95189.66;6340158;27;108999;-65
2023/09/13 12:17:06;;;;;;;;;;;;;;;25.43;35.68;95186.47;6340967;27;108803;-66
2023/09/13 12:20:11;;;;;;;;;;;;;;;25.43;35.73;95187.25;6330975;27;109228;-67
2023/09/13 12:23:16;;;;;;;;;;;;;;;25.47;35.40;95174.00;6340750;27;109184;-67
2023/09/13 12:26:19;;;;;;;;;;;;;;;25.50;35.22;95176.03;6340795;27;109271;-67
2023/09/13 12:29:22;;;;;;;;;;;;;;;25.52;35.19;95171.91;6317695;27;109107;-67
2023/09/13 12:32:26;;;;;;;;;;;;;;;25.47;35.66;95160.59;6321206;27;109098;-67
2023/09/13 12:35:31;;;;;;;;;;;;;;;25.43;35.39;95159.69;6341463;27;108653;-67
2023/09/13 12:38:34;;;;;;;;;;;;;;;25.52;34.83;95163.88;6340539;27;109213;-67
2023/09/13 12:41:37;;;;;;;;;;;;;;;25.56;33.83;95154.09;6329469;27;110065;-69
2023/09/13 12:44:40;;;;;;;;;;;;;;;25.47;34.66;95156.03;6340315;27;111951;-67
2023/09/13 12:47:44;;;;;;;;;;;;;;;25.53;33.80;95152.03;6340673;27;109006;-67
2023/09/13 12:50:48;;;;;;;;;;;;;;;25.48;34.28;95149.56;6340150;27;109040;-67
2023/09/13 12:53:51;;;;;;;;;;;;;;;25.43;34.57;95147.06;6329619;27;109575;-67
2023/09/13 12:57:00;;;;;;;;;;;;;;;25.36;35.03;95144.09;6340151;27;109175;-67
2023/09/13 13:00:04;;;;;;;;;;;;;;;25.42;34.47;95140.16;6339652;27;109522;-68
2023/09/13 13:03:08;;;;;;;;;;;;;;;25.50;33.43;95138.50;6335155;27;109233;-65
2023/09/13 13:06:11;;;;;;;;;;;;;;;25.61;32.18;95137.81;6334166;27;109971;-67
2023/09/13 13:09:18;;;;;;;;;;;;;;;25.71;32.03;95125.13;6338659;27;109051;-67
2023/09/13 13:12:21;;;;;;;;;;;;;;;25.65;32.30;95130.69;6339653;27;109299;-67
2023/09/13 13:15:29;;;;;;;;;;;;;;;25.66;32.07;95129.56;6328769;27;109096;-67
2023/09/13 13:18:34;;;;;;;;;;;;;;;25.62;32.49;95125.19;6339747;27;109072;-75
2023/09/13 13:21:54;;;;;;;;;;;;;;;25.64;32.17;95121.06;6339823;27;109194;-67
2023/09/13 13:25:18;;;;;;;;;;;;;;;25.68;32.33;95124.66;6339638;27;109050;-68
2023/09/13 13:28:21;;;;;;;;;;;;;;;25.73;31.82;95120.25;6328622;27;109043;-63
2023/09/13 13:31:24;;;;;;;;;;;;;;;25.69;31.90;95115.50;6339398;27;109243;-64
2023/09/13 13:34:28;;;;;;;;;;;;;;;25.75;31.62;95108.06;6314138;27;109999;-62
2023/09/13 13:37:31;;;;;;;;;;;;;;;25.73;31.92;95104.16;6318049;27;108706;-65
2023/09/13 13:40:34;;;;;;;;;;;;;;;25.65;31.90;95098.53;6334628;27;109280;-63
2023/09/13 13:43:40;;;;;;;;;;;;;;;25.70;31.48;95094.84;6339148;27;109179;-64
2023/09/13 13:46:44;;;;;;;;;;;;;;;25.62;32.31;95093.81;6337855;27;109734;-63
2023/09/13 13:49:48;;;;;;;;;;;;;;;25.54;32.59;95088.50;6327529;27;109153;-62
2023/09/13 13:52:51;;;;;;;;;;;;;;;25.57;32.47;95091.34;6338782;27;109197;-64
2023/09/13 13:55:54;;;;;;;;;;;;;;;25.55;32.83;95082.06;6339180;27;109065;-62
2023/09/13 13:58:57;;;;;;;;;;;;;;;25.50;32.92;95085.69;6325281;27;109509;-63
2023/09/13 14:02:03;;;;;;;;;;;;;;;25.53;32.70;95079.69;6304558;27;109030;-63
2023/09/13 14:05:09;;;;;;;;;;;;;;;25.55;33.13;95077.50;6338933;27;109217;-63
2023/09/13 14:08:12;;;;;;;;;;;;;;;25.56;32.60;95075.59;6338576;27;109034;-63
2023/09/13 14:11:14;;;;;;;;;;;;;;;25.62;32.52;95071.59;6333443;27;109205;-81
2023/09/13 14:14:18;;;;;;;;;;;;;;;25.66;31.85;95065.25;6332706;27;109630;-61
2023/09/13 14:17:22;;;;;;;;;;;;;;;25.66;32.34;95067.91;6337340;27;109021;-60
2023/09/13 14:20:27;;;;;;;;;;;;;;;25.61;32.30;95065.44;6338319;27;109215;-62
2023/09/13 14:23:29;;;;;;;;;;;;;;;25.59;32.17;95061.53;6328787;27;109540;-61
2023/09/13 14:26:32;;;;;;;;;;;;;;;25.60;32.46;95058.53;6338144;27;109562;-61
2023/09/13 14:29:35;;;;;;;;;;;;;;;25.57;32.21;95053.81;6337387;27;109041;-60
2023/09/13 14:32:38;;;;;;;;;;;;;;;25.58;32.29;95046.56;6337920;27;109044;-62
2023/09/13 14:35:42;;;;;;;;;;;;;;;25.56;32.63;95046.91;6327659;27;109229;-61
2023/09/13 14:38:45;;;;;;;;;;;;;;;25.55;32.47;95042.66;6338658;27;110177;-67
2023/09/13 14:41:51;;;;;;;;;;;;;;;25.60;32.36;95053.16;6338288;27;109215;-68
2023/09/13 14:44:54;;;;;;;;;;;;;;;25.75;32.56;95043.75;6331829;27;109031;-68
2023/09/13 14:47:57;;;;;;;;;;;;;;;25.74;32.45;95036.81;6309518;27;109215;-68
2023/09/13 14:51:01;;;;;;;;;;;;;;;25.73;32.30;95045.19;6338500;27;110157;-68
2023/09/13 14:54:04;;;;;;;;;;;;;;;25.72;32.53;95039.03;6337835;27;109199;-68
2023/09/13 14:57:07;;;;;;;;;;;;;;;25.67;33.02;95029.28;6332363;27;109460;-68
2023/09/13 15:00:10;;;;;;;;;;;;;;;25.72;32.63;95035.56;6332582;27;109378;-67
2023/09/13 15:03:13;;;;;;;;;;;;;;;25.70;32.81;95035.88;6327674;27;108983;-67
2023/09/13 15:06:18;;;;;;;;;;;;;;;25.66;33.35;95030.41;6312238;27;109220;-67
2023/09/13 15:09:21;;;;;;;;;;;;;;;25.69;34.03;95034.31;6319338;27;109035;-81
2023/09/13 15:12:24;;;;;;;;;;;;;;;25.69;33.55;95040.47;6336898;27;109014;-67
2023/09/13 15:15:27;;;;;;;;;;;;;;;25.63;33.19;95047.16;6337486;27;109098;-68
2023/09/13 15:18:34;;;;;;;;;;;;;;;25.61;33.24;95049.38;6334559;27;109000;-68
2023/09/13 15:21:39;;;;;;;;;;;;;;;25.60;33.54;95045.13;6300821;27;109084;-68
2023/09/13 15:24:42;;;;;;;;;;;;;;;25.60;33.07;95047.81;6332758;27;109036;-68
2023/09/13 15:27:44;;;;;;;;;;;;;;;25.58;33.29;95046.56;6335986;27;109989;-68
2023/09/13 15:30:47;;;;;;;;;;;;;;;25.59;33.07;95048.91;6332505;27;109573;-68
2023/09/13 15:33:50;;;;;;;;;;;;;;;25.63;33.57;95046.34;6326697;27;109585;-66
2023/09/13 15:36:55;;;;;;;;;;;;;;;25.62;33.73;95052.84;6309847;27;108998;-67
2023/09/13 15:39:58;;;;;;;;;;;;;;;25.61;33.84;95046.69;6313713;27;109248;-68
2023/09/13 15:43:01;;;;;;;;;;;;;;;25.63;33.79;95046.34;6308572;27;108947;-67
2023/09/13 15:46:04;;;;;;;;;;;;;;;25.61;34.02;95049.38;6332024;27;109392;-67
2023/09/13 15:49:07;;;;;;;;;;;;;;;25.57;34.10;95050.34;6323761;27;109066;-66